sensor_id;sensor_type;location;lat;lon;timestamp;P1;durP1;ratioP1;P2;durP2;ratioP2
8331;SDS011;4203;48.144;14.118;2023-05-07T00:00:29;6.38;;;5.72;;
8331;SDS011;4203;48.144;14.118;2023-05-07T00:02:58;5.53;;;5.13;;
8331;SDS011;4203;48.144;14.118;2023-05-07T00:05:27;5.63;;;5.07;;
8331;SDS011;4203;48.144;14.118;2023-05-07T00:07:54;6.63;;;5.50;;
8331;SDS011;4203;48.144;14.118;2023-05-07T00:10:23;7.22;;;6.53;;
8331;SDS011;4203;48.144;14.118;2023-05-07T00:12:51;6.00;;;5.50;;
8331;SDS011;4203;48.144;14.118;2023-05-07T00:15:22;6.20;;;5.60;;
8331;SDS011;4203;48.144;14.118;2023-05-07T00:17:49;6.13;;;5.53;;
8331;SDS011;4203;48.144;14.118;2023-05-07T00:20:17;5.70;;;5.20;;
8331;SDS011;4203;48.144;14.118;2023-05-07T00:22:44;6.15;;;5.65;;
8331;SDS011;4203;48.144;14.118;2023-05-07T00:25:11;6.40;;;5.90;;
8331;SDS011;4203;48.144;14.118;2023-05-07T00:27:44;6.45;;;5.95;;
8331;SDS011;4203;48.144;14.118;2023-05-07T00:30:25;5.95;;;5.55;;
8331;SDS011;4203;48.144;14.118;2023-05-07T00:32:53;5.88;;;5.25;;
8331;SDS011;4203;48.144;14.118;2023-05-07T00:35:20;5.95;;;5.55;;
8331;SDS011;4203;48.144;14.118;2023-05-07T00:37:48;5.72;;;5.20;;
8331;SDS011;4203;48.144;14.118;2023-05-07T00:40:17;5.85;;;5.25;;
8331;SDS011;4203;48.144;14.118;2023-05-07T00:42:44;5.40;;;5.00;;
8331;SDS011;4203;48.144;14.118;2023-05-07T00:45:14;6.70;;;5.07;;
8331;SDS011;4203;48.144;14.118;2023-05-07T00:47:43;5.90;;;5.50;;
8331;SDS011;4203;48.144;14.118;2023-05-07T00:50:31;5.63;;;5.13;;
8331;SDS011;4203;48.144;14.118;2023-05-07T00:53:00;5.85;;;5.45;;
8331;SDS011;4203;48.144;14.118;2023-05-07T00:55:41;5.30;;;4.97;;
8331;SDS011;4203;48.144;14.118;2023-05-07T00:58:13;5.28;;;4.82;;
8331;SDS011;4203;48.144;14.118;2023-05-07T01:00:42;5.47;;;5.07;;
8331;SDS011;4203;48.144;14.118;2023-05-07T01:03:10;5.93;;;5.35;;
8331;SDS011;4203;48.144;14.118;2023-05-07T01:05:37;5.88;;;5.43;;
8331;SDS011;4203;48.144;14.118;2023-05-07T01:08:05;6.85;;;5.57;;
8331;SDS011;4203;48.144;14.118;2023-05-07T01:10:44;5.28;;;4.85;;
8331;SDS011;4203;48.144;14.118;2023-05-07T01:13:12;6.45;;;5.85;;
8331;SDS011;4203;48.144;14.118;2023-05-07T01:15:41;7.10;;;5.88;;
8331;SDS011;4203;48.144;14.118;2023-05-07T01:18:11;5.75;;;5.32;;
8331;SDS011;4203;48.144;14.118;2023-05-07T01:20:38;5.30;;;4.90;;
8331;SDS011;4203;48.144;14.118;2023-05-07T01:23:08;6.13;;;5.63;;
8331;SDS011;4203;48.144;14.118;2023-05-07T01:25:37;6.22;;;5.50;;
8331;SDS011;4203;48.144;14.118;2023-05-07T01:28:04;5.57;;;5.13;;
8331;SDS011;4203;48.144;14.118;2023-05-07T01:30:32;7.28;;;5.70;;
8331;SDS011;4203;48.144;14.118;2023-05-07T01:33:03;6.47;;;5.65;;
8331;SDS011;4203;48.144;14.118;2023-05-07T01:35:34;6.85;;;5.82;;
8331;SDS011;4203;48.144;14.118;2023-05-07T01:38:05;5.70;;;5.30;;
8331;SDS011;4203;48.144;14.118;2023-05-07T01:40:42;5.75;;;5.35;;
8331;SDS011;4203;48.144;14.118;2023-05-07T01:43:09;6.20;;;5.80;;
8331;SDS011;4203;48.144;14.118;2023-05-07T01:45:37;6.10;;;5.65;;
8331;SDS011;4203;48.144;14.118;2023-05-07T01:48:06;7.00;;;6.43;;
8331;SDS011;4203;48.144;14.118;2023-05-07T01:50:35;7.70;;;5.80;;
8331;SDS011;4203;48.144;14.118;2023-05-07T01:53:27;6.72;;;6.20;;
8331;SDS011;4203;48.144;14.118;2023-05-07T01:55:56;6.63;;;6.18;;
8331;SDS011;4203;48.144;14.118;2023-05-07T01:58:23;6.28;;;5.78;;
8331;SDS011;4203;48.144;14.118;2023-05-07T02:00:56;8.77;;;6.32;;
8331;SDS011;4203;48.144;14.118;2023-05-07T02:03:24;6.35;;;5.80;;
8331;SDS011;4203;48.144;14.118;2023-05-07T02:05:51;6.68;;;6.07;;
8331;SDS011;4203;48.144;14.118;2023-05-07T02:08:18;6.03;;;5.63;;
8331;SDS011;4203;48.144;14.118;2023-05-07T02:10:45;5.78;;;5.22;;
8331;SDS011;4203;48.144;14.118;2023-05-07T02:13:14;6.82;;;6.10;;
8331;SDS011;4203;48.144;14.118;2023-05-07T02:15:43;6.38;;;5.78;;
8331;SDS011;4203;48.144;14.118;2023-05-07T02:18:15;6.85;;;5.25;;
8331;SDS011;4203;48.144;14.118;2023-05-07T02:20:44;8.27;;;5.93;;
8331;SDS011;4203;48.144;14.118;2023-05-07T02:23:20;6.82;;;5.68;;
8331;SDS011;4203;48.144;14.118;2023-05-07T02:38:19;6.05;;;5.55;;
8331;SDS011;4203;48.144;14.118;2023-05-07T02:40:48;6.30;;;5.70;;
8331;SDS011;4203;48.144;14.118;2023-05-07T02:43:15;5.72;;;5.32;;
8331;SDS011;4203;48.144;14.118;2023-05-07T02:45:42;5.82;;;5.38;;
8331;SDS011;4203;48.144;14.118;2023-05-07T02:48:10;5.32;;;4.95;;
8331;SDS011;4203;48.144;14.118;2023-05-07T02:50:37;5.93;;;5.43;;
8331;SDS011;4203;48.144;14.118;2023-05-07T02:53:05;5.55;;;5.15;;
8331;SDS011;4203;48.144;14.118;2023-05-07T02:55:34;7.10;;;5.35;;
8331;SDS011;4203;48.144;14.118;2023-05-07T02:58:01;5.57;;;5.18;;
8331;SDS011;4203;48.144;14.118;2023-05-07T03:03:10;5.68;;;5.18;;
8331;SDS011;4203;48.144;14.118;2023-05-07T03:05:37;6.47;;;5.97;;
8331;SDS011;4203;48.144;14.118;2023-05-07T03:08:04;6.15;;;5.47;;
8331;SDS011;4203;48.144;14.118;2023-05-07T03:10:42;6.53;;;5.60;;
8331;SDS011;4203;48.144;14.118;2023-05-07T03:13:09;6.47;;;6.03;;
8331;SDS011;4203;48.144;14.118;2023-05-07T03:15:36;6.80;;;5.57;;
8331;SDS011;4203;48.144;14.118;2023-05-07T03:18:04;6.13;;;5.63;;
8331;SDS011;4203;48.144;14.118;2023-05-07T03:20:43;6.35;;;5.85;;
8331;SDS011;4203;48.144;14.118;2023-05-07T03:23:10;6.72;;;6.13;;
8331;SDS011;4203;48.144;14.118;2023-05-07T03:25:37;6.30;;;5.80;;
8331;SDS011;4203;48.144;14.118;2023-05-07T03:28:06;6.28;;;5.78;;
8331;SDS011;4203;48.144;14.118;2023-05-07T03:30:50;6.63;;;6.00;;
8331;SDS011;4203;48.144;14.118;2023-05-07T03:40:30;7.43;;;6.10;;
8331;SDS011;4203;48.144;14.118;2023-05-07T03:47:07;6.45;;;5.85;;
8331;SDS011;4203;48.144;14.118;2023-05-07T03:50:26;6.20;;;5.78;;
8331;SDS011;4203;48.144;14.118;2023-05-07T04:31:14;6.05;;;5.57;;
8331;SDS011;4203;48.144;14.118;2023-05-07T04:36:10;5.45;;;5.05;;
8331;SDS011;4203;48.144;14.118;2023-05-07T04:38:37;5.65;;;5.13;;
8331;SDS011;4203;48.144;14.118;2023-05-07T04:41:05;5.97;;;5.32;;
8331;SDS011;4203;48.144;14.118;2023-05-07T04:43:33;5.38;;;4.97;;
8331;SDS011;4203;48.144;14.118;2023-05-07T04:46:01;6.03;;;5.53;;
8331;SDS011;4203;48.144;14.118;2023-05-07T04:48:31;5.40;;;4.90;;
8331;SDS011;4203;48.144;14.118;2023-05-07T04:51:09;6.30;;;5.78;;
8331;SDS011;4203;48.144;14.118;2023-05-07T04:53:36;5.85;;;5.43;;
8331;SDS011;4203;48.144;14.118;2023-05-07T04:56:04;5.82;;;5.32;;
8331;SDS011;4203;48.144;14.118;2023-05-07T04:58:31;7.07;;;6.07;;
8331;SDS011;4203;48.144;14.118;2023-05-07T05:01:14;6.15;;;5.57;;
8331;SDS011;4203;48.144;14.118;2023-05-07T05:03:43;7.00;;;5.80;;
8331;SDS011;4203;48.144;14.118;2023-05-07T05:06:10;6.45;;;5.93;;
8331;SDS011;4203;48.144;14.118;2023-05-07T05:08:38;6.38;;;5.85;;
8331;SDS011;4203;48.144;14.118;2023-05-07T05:11:05;6.60;;;6.00;;
8331;SDS011;4203;48.144;14.118;2023-05-07T05:13:33;7.45;;;5.80;;
8331;SDS011;4203;48.144;14.118;2023-05-07T05:18:35;5.63;;;5.13;;
8331;SDS011;4203;48.144;14.118;2023-05-07T05:27:51;7.82;;;7.07;;
8331;SDS011;4203;48.144;14.118;2023-05-07T05:30:27;9.30;;;8.40;;
8331;SDS011;4203;48.144;14.118;2023-05-07T05:32:55;7.68;;;6.97;;
8331;SDS011;4203;48.144;14.118;2023-05-07T05:35:23;7.78;;;6.97;;
8331;SDS011;4203;48.144;14.118;2023-05-07T05:37:50;9.43;;;7.45;;
8331;SDS011;4203;48.144;14.118;2023-05-07T05:40:17;6.55;;;5.95;;
8331;SDS011;4203;48.144;14.118;2023-05-07T05:42:45;6.80;;;6.28;;
8331;SDS011;4203;48.144;14.118;2023-05-07T05:48:05;5.57;;;5.07;;
8331;SDS011;4203;48.144;14.118;2023-05-07T05:50:33;6.10;;;5.50;;
8331;SDS011;4203;48.144;14.118;2023-05-07T05:53:01;5.78;;;5.38;;
8331;SDS011;4203;48.144;14.118;2023-05-07T05:55:31;6.25;;;5.75;;
8331;SDS011;4203;48.144;14.118;2023-05-07T05:57:58;5.45;;;4.90;;
8331;SDS011;4203;48.144;14.118;2023-05-07T06:00:27;4.68;;;4.38;;
8331;SDS011;4203;48.144;14.118;2023-05-07T06:02:55;5.05;;;4.65;;
8331;SDS011;4203;48.144;14.118;2023-05-07T06:05:24;6.53;;;4.43;;
8331;SDS011;4203;48.144;14.118;2023-05-07T06:07:51;5.00;;;4.60;;
8331;SDS011;4203;48.144;14.118;2023-05-07T06:10:21;4.93;;;4.60;;
8331;SDS011;4203;48.144;14.118;2023-05-07T06:12:49;4.70;;;4.35;;
8331;SDS011;4203;48.144;14.118;2023-05-07T06:15:16;5.65;;;5.10;;
8331;SDS011;4203;48.144;14.118;2023-05-07T06:17:43;5.55;;;5.13;;
8331;SDS011;4203;48.144;14.118;2023-05-07T06:20:10;5.43;;;4.55;;
8331;SDS011;4203;48.144;14.118;2023-05-07T06:22:39;5.10;;;4.70;;
8331;SDS011;4203;48.144;14.118;2023-05-07T06:25:06;4.80;;;4.50;;
8331;SDS011;4203;48.144;14.118;2023-05-07T06:27:34;7.03;;;5.32;;
8331;SDS011;4203;48.144;14.118;2023-05-07T06:30:01;11.25;;;5.53;;
8331;SDS011;4203;48.144;14.118;2023-05-07T06:32:29;7.93;;;5.93;;
8331;SDS011;4203;48.144;14.118;2023-05-07T06:34:56;6.20;;;5.60;;
8331;SDS011;4203;48.144;14.118;2023-05-07T06:37:23;6.15;;;5.65;;
8331;SDS011;4203;48.144;14.118;2023-05-07T06:39:53;6.65;;;6.05;;
8331;SDS011;4203;48.144;14.118;2023-05-07T06:42:20;7.07;;;6.20;;
8331;SDS011;4203;48.144;14.118;2023-05-07T06:44:47;7.35;;;6.43;;
8331;SDS011;4203;48.144;14.118;2023-05-07T06:47:14;7.22;;;6.63;;
8331;SDS011;4203;48.144;14.118;2023-05-07T06:49:43;7.38;;;6.75;;
8331;SDS011;4203;48.144;14.118;2023-05-07T06:52:10;7.13;;;6.53;;
8331;SDS011;4203;48.144;14.118;2023-05-07T06:54:38;7.03;;;6.43;;
8331;SDS011;4203;48.144;14.118;2023-05-07T06:57:06;6.80;;;6.20;;
8331;SDS011;4203;48.144;14.118;2023-05-07T06:59:33;7.57;;;6.85;;
8331;SDS011;4203;48.144;14.118;2023-05-07T07:02:00;7.45;;;6.72;;
8331;SDS011;4203;48.144;14.118;2023-05-07T07:04:28;7.50;;;6.80;;
8331;SDS011;4203;48.144;14.118;2023-05-07T07:06:56;8.45;;;7.65;;
8331;SDS011;4203;48.144;14.118;2023-05-07T07:09:23;7.03;;;6.30;;
8331;SDS011;4203;48.144;14.118;2023-05-07T07:11:50;7.68;;;6.20;;
8331;SDS011;4203;48.144;14.118;2023-05-07T07:14:19;7.35;;;6.70;;
8331;SDS011;4203;48.144;14.118;2023-05-07T07:16:46;11.20;;;6.75;;
8331;SDS011;4203;48.144;14.118;2023-05-07T07:19:13;8.48;;;6.43;;
8331;SDS011;4203;48.144;14.118;2023-05-07T07:21:41;8.05;;;7.25;;
8331;SDS011;4203;48.144;14.118;2023-05-07T07:24:08;7.78;;;6.65;;
8331;SDS011;4203;48.144;14.118;2023-05-07T07:26:35;8.35;;;6.47;;
8331;SDS011;4203;48.144;14.118;2023-05-07T07:29:02;7.45;;;6.75;;
8331;SDS011;4203;48.144;14.118;2023-05-07T07:31:31;7.97;;;7.15;;
8331;SDS011;4203;48.144;14.118;2023-05-07T07:33:58;7.68;;;6.95;;
8331;SDS011;4203;48.144;14.118;2023-05-07T07:36:25;9.45;;;7.60;;
8331;SDS011;4203;48.144;14.118;2023-05-07T07:38:53;7.65;;;6.93;;
8331;SDS011;4203;48.144;14.118;2023-05-07T07:41:20;7.25;;;6.65;;
8331;SDS011;4203;48.144;14.118;2023-05-07T07:43:47;7.07;;;6.47;;
8331;SDS011;4203;48.144;14.118;2023-05-07T07:46:14;7.72;;;7.03;;
8331;SDS011;4203;48.144;14.118;2023-05-07T07:48:43;9.10;;;7.15;;
8331;SDS011;4203;48.144;14.118;2023-05-07T07:51:10;7.45;;;6.78;;
8331;SDS011;4203;48.144;14.118;2023-05-07T07:53:37;7.45;;;6.75;;
8331;SDS011;4203;48.144;14.118;2023-05-07T07:56:05;7.03;;;6.47;;
8331;SDS011;4203;48.144;14.118;2023-05-07T07:58:32;7.28;;;6.57;;
8331;SDS011;4203;48.144;14.118;2023-05-07T08:01:00;7.03;;;6.40;;
8331;SDS011;4203;48.144;14.118;2023-05-07T08:03:27;6.22;;;5.68;;
8331;SDS011;4203;48.144;14.118;2023-05-07T08:05:58;7.47;;;6.25;;
8331;SDS011;4203;48.144;14.118;2023-05-07T08:08:25;7.28;;;6.57;;
8331;SDS011;4203;48.144;14.118;2023-05-07T08:10:53;7.50;;;6.72;;
8331;SDS011;4203;48.144;14.118;2023-05-07T08:13:20;7.10;;;6.50;;
8331;SDS011;4203;48.144;14.118;2023-05-07T08:15:47;6.63;;;6.13;;
8331;SDS011;4203;48.144;14.118;2023-05-07T08:18:14;7.03;;;6.43;;
8331;SDS011;4203;48.144;14.118;2023-05-07T08:20:42;6.80;;;6.15;;
8331;SDS011;4203;48.144;14.118;2023-05-07T08:23:11;7.22;;;6.22;;
8331;SDS011;4203;48.144;14.118;2023-05-07T08:25:38;6.50;;;5.90;;
8331;SDS011;4203;48.144;14.118;2023-05-07T08:28:07;6.00;;;5.45;;
8331;SDS011;4203;48.144;14.118;2023-05-07T08:30:34;6.53;;;5.88;;
8331;SDS011;4203;48.144;14.118;2023-05-07T08:33:01;6.78;;;6.18;;
8331;SDS011;4203;48.144;14.118;2023-05-07T08:35:29;7.55;;;6.25;;
8331;SDS011;4203;48.144;14.118;2023-05-07T08:37:56;7.43;;;6.18;;
8331;SDS011;4203;48.144;14.118;2023-05-07T08:40:25;6.53;;;6.03;;
8331;SDS011;4203;48.144;14.118;2023-05-07T08:42:53;6.38;;;5.88;;
8331;SDS011;4203;48.144;14.118;2023-05-07T08:45:21;7.10;;;6.40;;
8331;SDS011;4203;48.144;14.118;2023-05-07T08:47:50;6.57;;;5.90;;
8331;SDS011;4203;48.144;14.118;2023-05-07T08:50:21;5.95;;;5.45;;
8331;SDS011;4203;48.144;14.118;2023-05-07T08:52:48;6.18;;;5.68;;
8331;SDS011;4203;48.144;14.118;2023-05-07T08:55:15;5.43;;;5.03;;
8331;SDS011;4203;48.144;14.118;2023-05-07T08:57:44;6.05;;;5.45;;
8331;SDS011;4203;48.144;14.118;2023-05-07T09:00:12;7.72;;;5.30;;
8331;SDS011;4203;48.144;14.118;2023-05-07T09:02:40;7.30;;;6.15;;
8331;SDS011;4203;48.144;14.118;2023-05-07T09:05:07;5.75;;;5.25;;
8331;SDS011;4203;48.144;14.118;2023-05-07T09:07:35;6.80;;;6.10;;
8331;SDS011;4203;48.144;14.118;2023-05-07T09:10:03;7.20;;;5.63;;
8331;SDS011;4203;48.144;14.118;2023-05-07T09:12:31;6.05;;;5.47;;
8331;SDS011;4203;48.144;14.118;2023-05-07T09:15:01;5.55;;;5.10;;
8331;SDS011;4203;48.144;14.118;2023-05-07T09:17:29;5.47;;;5.07;;
8331;SDS011;4203;48.144;14.118;2023-05-07T09:19:56;5.28;;;4.82;;
8331;SDS011;4203;48.144;14.118;2023-05-07T09:22:28;4.95;;;4.65;;
8331;SDS011;4203;48.144;14.118;2023-05-07T09:24:58;5.85;;;5.20;;
8331;SDS011;4203;48.144;14.118;2023-05-07T09:27:25;6.57;;;5.57;;
8331;SDS011;4203;48.144;14.118;2023-05-07T09:29:52;7.25;;;5.63;;
8331;SDS011;4203;48.144;14.118;2023-05-07T09:32:21;6.32;;;5.47;;
8331;SDS011;4203;48.144;14.118;2023-05-07T09:34:48;5.88;;;5.38;;
8331;SDS011;4203;48.144;14.118;2023-05-07T09:37:15;6.25;;;5.75;;
8331;SDS011;4203;48.144;14.118;2023-05-07T09:39:43;5.15;;;4.75;;
8331;SDS011;4203;48.144;14.118;2023-05-07T09:42:11;5.70;;;5.13;;
8331;SDS011;4203;48.144;14.118;2023-05-07T09:44:40;6.05;;;4.93;;
8331;SDS011;4203;48.144;14.118;2023-05-07T09:47:08;6.13;;;5.07;;
8331;SDS011;4203;48.144;14.118;2023-05-07T09:49:39;5.82;;;5.32;;
8331;SDS011;4203;48.144;14.118;2023-05-07T09:52:08;5.50;;;5.00;;
8331;SDS011;4203;48.144;14.118;2023-05-07T09:54:36;5.30;;;4.80;;
8331;SDS011;4203;48.144;14.118;2023-05-07T09:57:04;5.43;;;4.93;;
8331;SDS011;4203;48.144;14.118;2023-05-07T09:59:32;8.18;;;4.90;;
8331;SDS011;4203;48.144;14.118;2023-05-07T10:02:00;8.48;;;4.85;;
8331;SDS011;4203;48.144;14.118;2023-05-07T10:04:29;5.28;;;4.78;;
8331;SDS011;4203;48.144;14.118;2023-05-07T10:06:59;4.38;;;4.00;;
8331;SDS011;4203;48.144;14.118;2023-05-07T10:09:27;5.82;;;5.35;;
8331;SDS011;4203;48.144;14.118;2023-05-07T10:11:55;5.10;;;4.57;;
8331;SDS011;4203;48.144;14.118;2023-05-07T10:14:23;4.78;;;4.38;;
8331;SDS011;4203;48.144;14.118;2023-05-07T10:16:51;5.15;;;4.75;;
8331;SDS011;4203;48.144;14.118;2023-05-07T10:19:20;5.82;;;4.90;;
8331;SDS011;4203;48.144;14.118;2023-05-07T10:21:50;5.70;;;4.38;;
8331;SDS011;4203;48.144;14.118;2023-05-07T10:24:25;4.60;;;4.20;;
8331;SDS011;4203;48.144;14.118;2023-05-07T10:26:53;4.82;;;4.43;;
8331;SDS011;4203;48.144;14.118;2023-05-07T10:29:25;4.72;;;4.32;;
8331;SDS011;4203;48.144;14.118;2023-05-07T10:32:05;4.43;;;4.13;;
8331;SDS011;4203;48.144;14.118;2023-05-07T10:34:41;3.47;;;3.28;;
8331;SDS011;4203;48.144;14.118;2023-05-07T10:37:11;5.45;;;3.92;;
8331;SDS011;4203;48.144;14.118;2023-05-07T10:39:40;4.63;;;3.90;;
8331;SDS011;4203;48.144;14.118;2023-05-07T10:42:08;4.40;;;3.67;;
8331;SDS011;4203;48.144;14.118;2023-05-07T10:44:36;3.42;;;3.22;;
8331;SDS011;4203;48.144;14.118;2023-05-07T10:47:07;4.13;;;3.65;;
8331;SDS011;4203;48.144;14.118;2023-05-07T10:49:36;4.10;;;3.80;;
8331;SDS011;4203;48.144;14.118;2023-05-07T10:52:24;4.68;;;4.28;;
8331;SDS011;4203;48.144;14.118;2023-05-07T10:57:50;4.43;;;4.13;;
8331;SDS011;4203;48.144;14.118;2023-05-07T11:03:08;4.93;;;3.67;;
8331;SDS011;4203;48.144;14.118;2023-05-07T11:05:37;4.97;;;4.57;;
8331;SDS011;4203;48.144;14.118;2023-05-07T11:08:04;6.57;;;4.57;;
8331;SDS011;4203;48.144;14.118;2023-05-07T11:13:44;4.80;;;4.45;;
8331;SDS011;4203;48.144;14.118;2023-05-07T11:16:16;3.97;;;3.67;;
8331;SDS011;4203;48.144;14.118;2023-05-07T11:18:48;3.90;;;3.63;;
8331;SDS011;4203;48.144;14.118;2023-05-07T11:21:31;3.90;;;3.50;;
8331;SDS011;4203;48.144;14.118;2023-05-07T11:24:00;3.50;;;3.30;;
8331;SDS011;4203;48.144;14.118;2023-05-07T11:26:29;3.78;;;3.47;;
8331;SDS011;4203;48.144;14.118;2023-05-07T11:28:59;3.55;;;3.33;;
8331;SDS011;4203;48.144;14.118;2023-05-07T11:31:27;3.50;;;3.20;;
8331;SDS011;4203;48.144;14.118;2023-05-07T11:33:55;3.30;;;3.10;;
8331;SDS011;4203;48.144;14.118;2023-05-07T11:36:23;3.30;;;3.10;;
8331;SDS011;4203;48.144;14.118;2023-05-07T11:38:51;3.08;;;2.65;;
8331;SDS011;4203;48.144;14.118;2023-05-07T11:41:18;3.53;;;3.33;;
8331;SDS011;4203;48.144;14.118;2023-05-07T11:43:53;2.65;;;2.53;;
8331;SDS011;4203;48.144;14.118;2023-05-07T11:46:26;3.38;;;3.10;;
8331;SDS011;4203;48.144;14.118;2023-05-07T11:48:54;3.15;;;2.92;;
8331;SDS011;4203;48.144;14.118;2023-05-07T11:51:22;3.63;;;3.35;;
8331;SDS011;4203;48.144;14.118;2023-05-07T11:53:51;3.08;;;2.88;;
8331;SDS011;4203;48.144;14.118;2023-05-07T11:56:18;3.25;;;3.05;;
8331;SDS011;4203;48.144;14.118;2023-05-07T11:58:46;2.95;;;2.78;;
8331;SDS011;4203;48.144;14.118;2023-05-07T12:01:16;2.95;;;2.72;;
8331;SDS011;4203;48.144;14.118;2023-05-07T12:03:44;3.80;;;3.50;;
8331;SDS011;4203;48.144;14.118;2023-05-07T12:06:12;4.43;;;3.90;;
8331;SDS011;4203;48.144;14.118;2023-05-07T12:08:41;4.40;;;3.88;;
8331;SDS011;4203;48.144;14.118;2023-05-07T12:11:10;4.20;;;3.90;;
8331;SDS011;4203;48.144;14.118;2023-05-07T12:13:41;3.88;;;3.58;;
8331;SDS011;4203;48.144;14.118;2023-05-07T12:16:08;3.28;;;3.08;;
8331;SDS011;4203;48.144;14.118;2023-05-07T12:18:37;3.58;;;3.30;;
8331;SDS011;4203;48.144;14.118;2023-05-07T12:21:05;4.35;;;3.08;;
8331;SDS011;4203;48.144;14.118;2023-05-07T12:23:33;3.42;;;3.20;;
8331;SDS011;4203;48.144;14.118;2023-05-07T12:26:02;4.03;;;3.28;;
8331;SDS011;4203;48.144;14.118;2023-05-07T12:28:29;4.63;;;2.70;;
8331;SDS011;4203;48.144;14.118;2023-05-07T12:30:57;3.92;;;2.80;;
8331;SDS011;4203;48.144;14.118;2023-05-07T12:33:25;3.63;;;3.33;;
8331;SDS011;4203;48.144;14.118;2023-05-07T12:35:55;3.63;;;3.40;;
8331;SDS011;4203;48.144;14.118;2023-05-07T12:38:22;4.93;;;3.28;;
8331;SDS011;4203;48.144;14.118;2023-05-07T12:40:53;3.78;;;3.47;;
8331;SDS011;4203;48.144;14.118;2023-05-07T12:43:21;4.65;;;3.45;;
8331;SDS011;4203;48.144;14.118;2023-05-07T12:45:51;3.28;;;3.10;;
8331;SDS011;4203;48.144;14.118;2023-05-07T12:48:20;3.70;;;2.90;;
8331;SDS011;4203;48.144;14.118;2023-05-07T12:50:52;2.97;;;2.83;;
8331;SDS011;4203;48.144;14.118;2023-05-07T12:53:21;3.65;;;3.42;;
8331;SDS011;4203;48.144;14.118;2023-05-07T12:55:50;3.30;;;3.00;;
8331;SDS011;4203;48.144;14.118;2023-05-07T12:58:19;3.30;;;3.10;;
8331;SDS011;4203;48.144;14.118;2023-05-07T13:00:48;5.28;;;3.05;;
8331;SDS011;4203;48.144;14.118;2023-05-07T13:03:23;3.50;;;3.20;;
8331;SDS011;4203;48.144;14.118;2023-05-07T13:05:50;3.25;;;3.05;;
8331;SDS011;4203;48.144;14.118;2023-05-07T13:08:27;3.00;;;2.80;;
8331;SDS011;4203;48.144;14.118;2023-05-07T13:10:55;4.10;;;3.13;;
8331;SDS011;4203;48.144;14.118;2023-05-07T13:13:23;5.00;;;2.92;;
8331;SDS011;4203;48.144;14.118;2023-05-07T13:15:50;2.55;;;2.40;;
8331;SDS011;4203;48.144;14.118;2023-05-07T13:18:18;2.47;;;2.30;;
8331;SDS011;4203;48.144;14.118;2023-05-07T13:20:46;3.00;;;2.80;;
8331;SDS011;4203;48.144;14.118;2023-05-07T13:23:13;3.53;;;3.33;;
8331;SDS011;4203;48.144;14.118;2023-05-07T13:25:41;2.88;;;2.70;;
8331;SDS011;4203;48.144;14.118;2023-05-07T13:28:09;2.20;;;2.10;;
8331;SDS011;4203;48.144;14.118;2023-05-07T13:30:42;3.40;;;2.63;;
8331;SDS011;4203;48.144;14.118;2023-05-07T13:33:09;2.97;;;2.78;;
8331;SDS011;4203;48.144;14.118;2023-05-07T13:35:36;3.15;;;2.95;;
8331;SDS011;4203;48.144;14.118;2023-05-07T13:38:04;5.28;;;3.17;;
8331;SDS011;4203;48.144;14.118;2023-05-07T13:40:31;3.10;;;2.90;;
8331;SDS011;4203;48.144;14.118;2023-05-07T13:43:00;3.20;;;3.00;;
8331;SDS011;4203;48.144;14.118;2023-05-07T13:45:28;3.30;;;3.00;;
8331;SDS011;4203;48.144;14.118;2023-05-07T13:47:55;3.38;;;2.92;;
8331;SDS011;4203;48.144;14.118;2023-05-07T13:50:23;3.28;;;3.08;;
8331;SDS011;4203;48.144;14.118;2023-05-07T13:52:51;3.70;;;3.05;;
8331;SDS011;4203;48.144;14.118;2023-05-07T13:55:19;3.35;;;3.15;;
8331;SDS011;4203;48.144;14.118;2023-05-07T13:57:48;4.07;;;3.78;;
8331;SDS011;4203;48.144;14.118;2023-05-07T14:00:24;3.72;;;3.50;;
8331;SDS011;4203;48.144;14.118;2023-05-07T14:02:51;4.22;;;3.70;;
8331;SDS011;4203;48.144;14.118;2023-05-07T14:05:18;3.92;;;3.58;;
8331;SDS011;4203;48.144;14.118;2023-05-07T14:07:45;3.92;;;3.72;;
8331;SDS011;4203;48.144;14.118;2023-05-07T14:10:14;3.97;;;3.63;;
8331;SDS011;4203;48.144;14.118;2023-05-07T14:12:41;4.20;;;4.00;;
8331;SDS011;4203;48.144;14.118;2023-05-07T14:15:08;4.80;;;4.40;;
8331;SDS011;4203;48.144;14.118;2023-05-07T14:17:37;4.45;;;4.10;;
8331;SDS011;4203;48.144;14.118;2023-05-07T14:20:05;4.50;;;4.10;;
8331;SDS011;4203;48.144;14.118;2023-05-07T14:22:33;4.38;;;4.07;;
8331;SDS011;4203;48.144;14.118;2023-05-07T14:25:00;4.90;;;4.47;;
8331;SDS011;4203;48.144;14.118;2023-05-07T14:27:27;4.68;;;4.15;;
8331;SDS011;4203;48.144;14.118;2023-05-07T14:29:56;4.20;;;3.90;;
8331;SDS011;4203;48.144;14.118;2023-05-07T14:32:23;4.07;;;3.85;;
8331;SDS011;4203;48.144;14.118;2023-05-07T14:34:52;5.15;;;4.65;;
8331;SDS011;4203;48.144;14.118;2023-05-07T14:37:19;5.25;;;4.80;;
8331;SDS011;4203;48.144;14.118;2023-05-07T14:39:46;5.32;;;4.68;;
8331;SDS011;4203;48.144;14.118;2023-05-07T14:42:14;4.93;;;4.63;;
8331;SDS011;4203;48.144;14.118;2023-05-07T14:44:41;7.55;;;4.82;;
8331;SDS011;4203;48.144;14.118;2023-05-07T14:47:09;6.07;;;5.57;;
8331;SDS011;4203;48.144;14.118;2023-05-07T14:49:37;6.05;;;5.50;;
8331;SDS011;4203;48.144;14.118;2023-05-07T14:52:05;6.53;;;6.03;;
8331;SDS011;4203;48.144;14.118;2023-05-07T14:54:35;6.47;;;5.85;;
8331;SDS011;4203;48.144;14.118;2023-05-07T14:57:04;5.97;;;5.50;;
8331;SDS011;4203;48.144;14.118;2023-05-07T14:59:32;7.90;;;6.32;;
8331;SDS011;4203;48.144;14.118;2023-05-07T15:01:59;6.25;;;5.65;;
8331;SDS011;4203;48.144;14.118;2023-05-07T15:04:26;6.57;;;5.97;;
8331;SDS011;4203;48.144;14.118;2023-05-07T15:06:53;6.32;;;5.78;;
8331;SDS011;4203;48.144;14.118;2023-05-07T15:09:22;6.22;;;5.78;;
8331;SDS011;4203;48.144;14.118;2023-05-07T15:11:49;7.25;;;6.65;;
8331;SDS011;4203;48.144;14.118;2023-05-07T15:14:17;7.05;;;6.45;;
8331;SDS011;4203;48.144;14.118;2023-05-07T15:16:44;6.88;;;6.15;;
8331;SDS011;4203;48.144;14.118;2023-05-07T15:19:12;10.40;;;6.82;;
8331;SDS011;4203;48.144;14.118;2023-05-07T15:21:41;9.30;;;6.63;;
8331;SDS011;4203;48.144;14.118;2023-05-07T15:24:08;7.35;;;6.65;;
8331;SDS011;4203;48.144;14.118;2023-05-07T15:26:37;8.07;;;6.50;;
8331;SDS011;4203;48.144;14.118;2023-05-07T15:29:04;6.60;;;6.05;;
8331;SDS011;4203;48.144;14.118;2023-05-07T15:31:35;7.20;;;6.60;;
8331;SDS011;4203;48.144;14.118;2023-05-07T15:34:03;6.97;;;6.38;;
8331;SDS011;4203;48.144;14.118;2023-05-07T15:36:31;8.00;;;6.90;;
8331;SDS011;4203;48.144;14.118;2023-05-07T15:38:58;8.93;;;6.93;;
8331;SDS011;4203;48.144;14.118;2023-05-07T15:41:27;7.57;;;6.72;;
8331;SDS011;4203;48.144;14.118;2023-05-07T15:43:55;6.88;;;6.28;;
8331;SDS011;4203;48.144;14.118;2023-05-07T15:46:23;7.25;;;6.50;;
8331;SDS011;4203;48.144;14.118;2023-05-07T15:48:51;6.95;;;6.25;;
8331;SDS011;4203;48.144;14.118;2023-05-07T15:51:19;6.50;;;5.93;;
8331;SDS011;4203;48.144;14.118;2023-05-07T15:53:47;7.68;;;6.97;;
8331;SDS011;4203;48.144;14.118;2023-05-07T15:56:16;8.50;;;7.70;;
8331;SDS011;4203;48.144;14.118;2023-05-07T15:58:43;10.18;;;7.95;;
8331;SDS011;4203;48.144;14.118;2023-05-07T16:01:11;8.68;;;7.97;;
8331;SDS011;4203;48.144;14.118;2023-05-07T16:03:39;9.00;;;8.15;;
8331;SDS011;4203;48.144;14.118;2023-05-07T16:06:06;10.38;;;9.23;;
8331;SDS011;4203;48.144;14.118;2023-05-07T16:08:36;9.45;;;8.50;;
8331;SDS011;4203;48.144;14.118;2023-05-07T16:11:06;10.00;;;8.98;;
8331;SDS011;4203;48.144;14.118;2023-05-07T16:13:33;8.65;;;7.85;;
8331;SDS011;4203;48.144;14.118;2023-05-07T16:16:01;7.90;;;7.10;;
8331;SDS011;4203;48.144;14.118;2023-05-07T16:18:29;9.25;;;8.30;;
8331;SDS011;4203;48.144;14.118;2023-05-07T16:20:58;8.57;;;7.78;;
8331;SDS011;4203;48.144;14.118;2023-05-07T16:23:25;10.38;;;9.35;;
8331;SDS011;4203;48.144;14.118;2023-05-07T16:25:52;9.20;;;8.30;;
8331;SDS011;4203;48.144;14.118;2023-05-07T16:28:20;10.18;;;8.57;;
8331;SDS011;4203;48.144;14.118;2023-05-07T16:30:49;9.52;;;8.55;;
8331;SDS011;4203;48.144;14.118;2023-05-07T16:33:16;10.48;;;8.60;;
8331;SDS011;4203;48.144;14.118;2023-05-07T16:35:45;9.85;;;8.80;;
8331;SDS011;4203;48.144;14.118;2023-05-07T16:38:17;10.07;;;8.90;;